sensor_id;sensor_type;location;lat;lon;timestamp;temperature;humidity
80958;DHT22;70419;42.700;23.316;2023-08-30T00:00:15;22.70;54.40
80958;DHT22;70419;42.700;23.316;2023-08-30T00:02:43;22.70;54.70
80958;DHT22;70419;42.700;23.316;2023-08-30T00:05:09;22.70;54.40
80958;DHT22;70419;42.700;23.316;2023-08-30T00:07:35;22.70;54.90
80958;DHT22;70419;42.700;23.316;2023-08-30T00:10:01;22.60;54.40
80958;DHT22;70419;42.700;23.316;2023-08-30T00:12:27;22.60;54.70
80958;DHT22;70419;42.700;23.316;2023-08-30T00:14:53;22.70;55.30
80958;DHT22;70419;42.700;23.316;2023-08-30T00:17:19;22.60;55.10
80958;DHT22;70419;42.700;23.316;2023-08-30T00:19:45;22.50;55.20
80958;DHT22;70419;42.700;23.316;2023-08-30T00:22:11;22.50;55.60
80958;DHT22;70419;42.700;23.316;2023-08-30T00:24:38;22.50;55.60
80958;DHT22;70419;42.700;23.316;2023-08-30T00:27:04;22.50;55.80
80958;DHT22;70419;42.700;23.316;2023-08-30T00:29:30;22.50;55.50
80958;DHT22;70419;42.700;23.316;2023-08-30T00:31:56;22.50;55.30
80958;DHT22;70419;42.700;23.316;2023-08-30T00:34:22;22.30;54.90
80958;DHT22;70419;42.700;23.316;2023-08-30T00:36:48;22.20;54.70
80958;DHT22;70419;42.700;23.316;2023-08-30T00:39:13;22.10;54.60
80958;DHT22;70419;42.700;23.316;2023-08-30T00:41:40;22.10;54.10
80958;DHT22;70419;42.700;23.316;2023-08-30T00:44:06;22.00;54.40
80958;DHT22;70419;42.700;23.316;2023-08-30T00:46:33;21.80;54.70
80958;DHT22;70419;42.700;23.316;2023-08-30T00:48:59;21.80;54.80
80958;DHT22;70419;42.700;23.316;2023-08-30T00:51:26;21.80;55.00
80958;DHT22;70419;42.700;23.316;2023-08-30T00:53:54;21.60;55.30
80958;DHT22;70419;42.700;23.316;2023-08-30T00:56:20;21.60;55.10
80958;DHT22;70419;42.700;23.316;2023-08-30T00:58:48;21.50;55.10
80958;DHT22;70419;42.700;23.316;2023-08-30T01:01:15;21.70;54.90
80958;DHT22;70419;42.700;23.316;2023-08-30T01:03:41;21.70;55.00
80958;DHT22;70419;42.700;23.316;2023-08-30T01:06:07;21.70;55.80
80958;DHT22;70419;42.700;23.316;2023-08-30T01:08:34;21.70;54.40
80958;DHT22;70419;42.700;23.316;2023-08-30T01:13:53;21.60;54.20
80958;DHT22;70419;42.700;23.316;2023-08-30T01:16:21;21.60;54.30
80958;DHT22;70419;42.700;23.316;2023-08-30T01:18:52;21.50;54.40
80958;DHT22;70419;42.700;23.316;2023-08-30T01:22:02;21.50;54.60
80958;DHT22;70419;42.700;23.316;2023-08-30T01:24:40;21.50;54.80
80958;DHT22;70419;42.700;23.316;2023-08-30T01:27:15;21.30;54.90
80958;DHT22;70419;42.700;23.316;2023-08-30T01:29:44;21.30;55.60
80958;DHT22;70419;42.700;23.316;2023-08-30T01:32:10;21.30;55.60
80958;DHT22;70419;42.700;23.316;2023-08-30T01:34:38;21.40;55.60
80958;DHT22;70419;42.700;23.316;2023-08-30T01:37:08;21.60;55.20
80958;DHT22;70419;42.700;23.316;2023-08-30T01:39:36;21.60;55.00
80958;DHT22;70419;42.700;23.316;2023-08-30T01:42:02;21.70;54.90
80958;DHT22;70419;42.700;23.316;2023-08-30T01:44:30;21.70;54.80
80958;DHT22;70419;42.700;23.316;2023-08-30T01:46:57;21.80;55.10
80958;DHT22;70419;42.700;23.316;2023-08-30T01:49:24;21.80;54.10
80958;DHT22;70419;42.700;23.316;2023-08-30T01:51:51;21.80;53.80
80958;DHT22;70419;42.700;23.316;2023-08-30T01:54:18;21.80;54.10
80958;DHT22;70419;42.700;23.316;2023-08-30T01:56:47;21.60;54.50
80958;DHT22;70419;42.700;23.316;2023-08-30T01:59:13;21.60;55.30
80958;DHT22;70419;42.700;23.316;2023-08-30T02:01:39;21.50;54.60
80958;DHT22;70419;42.700;23.316;2023-08-30T02:04:05;21.60;54.70
80958;DHT22;70419;42.700;23.316;2023-08-30T02:09:28;21.70;54.50
80958;DHT22;70419;42.700;23.316;2023-08-30T02:11:55;21.70;54.70
80958;DHT22;70419;42.700;23.316;2023-08-30T02:14:26;21.80;54.70
80958;DHT22;70419;42.700;23.316;2023-08-30T02:16:54;21.80;54.80
80958;DHT22;70419;42.700;23.316;2023-08-30T02:19:21;21.80;55.10
80958;DHT22;70419;42.700;23.316;2023-08-30T02:21:47;21.80;54.90
80958;DHT22;70419;42.700;23.316;2023-08-30T02:24:14;21.90;55.10
80958;DHT22;70419;42.700;23.316;2023-08-30T02:26:39;21.80;55.20
80958;DHT22;70419;42.700;23.316;2023-08-30T02:29:05;21.70;55.50
80958;DHT22;70419;42.700;23.316;2023-08-30T02:31:31;21.80;55.40
80958;DHT22;70419;42.700;23.316;2023-08-30T02:33:57;21.80;55.40
80958;DHT22;70419;42.700;23.316;2023-08-30T02:36:22;21.60;55.50
80958;DHT22;70419;42.700;23.316;2023-08-30T02:38:49;21.50;55.90
80958;DHT22;70419;42.700;23.316;2023-08-30T02:41:14;21.40;56.20
80958;DHT22;70419;42.700;23.316;2023-08-30T02:43:40;21.30;56.50
80958;DHT22;70419;42.700;23.316;2023-08-30T02:46:06;21.20;56.50
80958;DHT22;70419;42.700;23.316;2023-08-30T02:48:32;21.20;56.70
80958;DHT22;70419;42.700;23.316;2023-08-30T02:50:59;21.30;56.70
80958;DHT22;70419;42.700;23.316;2023-08-30T02:53:24;21.10;56.80
80958;DHT22;70419;42.700;23.316;2023-08-30T02:55:50;21.00;57.20
80958;DHT22;70419;42.700;23.316;2023-08-30T02:58:16;20.90;56.80
80958;DHT22;70419;42.700;23.316;2023-08-30T03:00:42;20.90;56.80
80958;DHT22;70419;42.700;23.316;2023-08-30T03:03:07;21.00;57.70
80958;DHT22;70419;42.700;23.316;2023-08-30T03:05:33;20.80;57.00
80958;DHT22;70419;42.700;23.316;2023-08-30T03:07:59;20.80;56.80
80958;DHT22;70419;42.700;23.316;2023-08-30T03:10:24;20.90;57.20
80958;DHT22;70419;42.700;23.316;2023-08-30T03:12:50;20.80;57.50
80958;DHT22;70419;42.700;23.316;2023-08-30T03:15:17;20.70;57.50
80958;DHT22;70419;42.700;23.316;2023-08-30T03:17:43;20.60;57.20
80958;DHT22;70419;42.700;23.316;2023-08-30T03:20:09;20.60;57.30
80958;DHT22;70419;42.700;23.316;2023-08-30T03:22:35;20.70;57.10
80958;DHT22;70419;42.700;23.316;2023-08-30T03:25:01;20.60;56.70
80958;DHT22;70419;42.700;23.316;2023-08-30T03:27:29;20.60;56.50
80958;DHT22;70419;42.700;23.316;2023-08-30T03:29:55;20.50;56.90
80958;DHT22;70419;42.700;23.316;2023-08-30T03:32:21;20.50;56.60
80958;DHT22;70419;42.700;23.316;2023-08-30T03:34:47;20.40;56.80
80958;DHT22;70419;42.700;23.316;2023-08-30T03:37:16;20.40;56.70
80958;DHT22;70419;42.700;23.316;2023-08-30T03:39:42;20.40;56.60
80958;DHT22;70419;42.700;23.316;2023-08-30T03:42:08;20.40;56.90
80958;DHT22;70419;42.700;23.316;2023-08-30T03:44:34;20.40;56.70
80958;DHT22;70419;42.700;23.316;2023-08-30T03:47:00;20.40;56.40
80958;DHT22;70419;42.700;23.316;2023-08-30T03:49:27;20.50;56.50
80958;DHT22;70419;42.700;23.316;2023-08-30T03:51:53;20.50;56.60
80958;DHT22;70419;42.700;23.316;2023-08-30T03:54:18;20.50;56.20
80958;DHT22;70419;42.700;23.316;2023-08-30T03:56:45;20.60;56.10
80958;DHT22;70419;42.700;23.316;2023-08-30T03:59:11;20.60;56.90
80958;DHT22;70419;42.700;23.316;2023-08-30T04:01:37;20.70;57.50
80958;DHT22;70419;42.700;23.316;2023-08-30T04:04:03;20.80;57.70
80958;DHT22;70419;42.700;23.316;2023-08-30T04:06:30;20.90;57.40
80958;DHT22;70419;42.700;23.316;2023-08-30T04:08:56;21.10;57.10
80958;DHT22;70419;42.700;23.316;2023-08-30T04:11:22;21.20;56.40
80958;DHT22;70419;42.700;23.316;2023-08-30T04:13:48;21.40;55.50
80958;DHT22;70419;42.700;23.316;2023-08-30T04:16:14;21.70;54.50
80958;DHT22;70419;42.700;23.316;2023-08-30T04:18:40;22.00;53.70
80958;DHT22;70419;42.700;23.316;2023-08-30T04:21:06;22.40;52.70
80958;DHT22;70419;42.700;23.316;2023-08-30T04:23:34;22.80;51.40
80958;DHT22;70419;42.700;23.316;2023-08-30T04:26:00;23.20;50.20
80958;DHT22;70419;42.700;23.316;2023-08-30T04:28:25;23.50;49.40
80958;DHT22;70419;42.700;23.316;2023-08-30T04:30:55;23.90;49.50
80958;DHT22;70419;42.700;23.316;2023-08-30T04:33:22;24.10;49.30
80958;DHT22;70419;42.700;23.316;2023-08-30T04:35:54;24.20;48.40
80958;DHT22;70419;42.700;23.316;2023-08-30T04:38:21;24.30;48.80
80958;DHT22;70419;42.700;23.316;2023-08-30T04:40:47;24.20;49.60
80958;DHT22;70419;42.700;23.316;2023-08-30T04:43:14;24.20;50.00
80958;DHT22;70419;42.700;23.316;2023-08-30T04:45:40;24.10;50.10
80958;DHT22;70419;42.700;23.316;2023-08-30T04:48:06;24.00;50.60
80958;DHT22;70419;42.700;23.316;2023-08-30T04:50:31;23.80;47.70
80958;DHT22;70419;42.700;23.316;2023-08-30T04:52:57;23.70;47.50
80958;DHT22;70419;42.700;23.316;2023-08-30T04:55:24;23.60;46.70
80958;DHT22;70419;42.700;23.316;2023-08-30T04:57:50;23.50;46.60
80958;DHT22;70419;42.700;23.316;2023-08-30T05:00:17;23.50;46.80
80958;DHT22;70419;42.700;23.316;2023-08-30T05:02:42;23.30;48.50
80958;DHT22;70419;42.700;23.316;2023-08-30T05:05:09;23.20;50.00
80958;DHT22;70419;42.700;23.316;2023-08-30T05:07:35;23.20;49.60
80958;DHT22;70419;42.700;23.316;2023-08-30T05:10:01;23.00;48.10
80958;DHT22;70419;42.700;23.316;2023-08-30T05:12:27;22.90;48.10
80958;DHT22;70419;42.700;23.316;2023-08-30T05:14:53;22.70;48.70
80958;DHT22;70419;42.700;23.316;2023-08-30T05:17:19;22.60;48.90
80958;DHT22;70419;42.700;23.316;2023-08-30T05:19:49;22.50;48.70
80958;DHT22;70419;42.700;23.316;2023-08-30T05:22:14;22.40;48.90
80958;DHT22;70419;42.700;23.316;2023-08-30T05:24:40;22.50;48.90
80958;DHT22;70419;42.700;23.316;2023-08-30T05:27:06;22.60;48.70
80958;DHT22;70419;42.700;23.316;2023-08-30T05:29:32;22.80;48.30
80958;DHT22;70419;42.700;23.316;2023-08-30T05:31:58;23.00;47.80
80958;DHT22;70419;42.700;23.316;2023-08-30T05:34:23;23.20;47.20
80958;DHT22;70419;42.700;23.316;2023-08-30T05:36:51;23.30;47.00
80958;DHT22;70419;42.700;23.316;2023-08-30T05:39:16;23.30;46.70
80958;DHT22;70419;42.700;23.316;2023-08-30T05:41:42;23.30;46.60
80958;DHT22;70419;42.700;23.316;2023-08-30T05:44:08;23.20;46.60
80958;DHT22;70419;42.700;23.316;2023-08-30T05:46:34;23.30;46.80
80958;DHT22;70419;42.700;23.316;2023-08-30T05:49:01;23.50;46.60
80958;DHT22;70419;42.700;23.316;2023-08-30T05:51:28;23.50;46.10
80958;DHT22;70419;42.700;23.316;2023-08-30T05:53:54;23.70;45.40
80958;DHT22;70419;42.700;23.316;2023-08-30T05:56:20;23.80;45.10
80958;DHT22;70419;42.700;23.316;2023-08-30T05:58:46;23.90;45.10
80958;DHT22;70419;42.700;23.316;2023-08-30T06:01:12;24.10;44.80
80958;DHT22;70419;42.700;23.316;2023-08-30T06:03:37;24.40;44.00
80958;DHT22;70419;42.700;23.316;2023-08-30T06:06:03;24.60;43.30
80958;DHT22;70419;42.700;23.316;2023-08-30T06:08:30;24.90;42.80
80958;DHT22;70419;42.700;23.316;2023-08-30T06:10:56;25.20;42.30
80958;DHT22;70419;42.700;23.316;2023-08-30T06:13:21;25.30;40.80
80958;DHT22;70419;42.700;23.316;2023-08-30T06:15:51;25.40;41.40
80958;DHT22;70419;42.700;23.316;2023-08-30T06:18:17;25.70;40.70
80958;DHT22;70419;42.700;23.316;2023-08-30T06:20:43;25.90;40.40
80958;DHT22;70419;42.700;23.316;2023-08-30T06:23:09;26.10;39.90
80958;DHT22;70419;42.700;23.316;2023-08-30T06:25:37;26.20;39.60
80958;DHT22;70419;42.700;23.316;2023-08-30T06:28:03;26.40;39.30
80958;DHT22;70419;42.700;23.316;2023-08-30T06:30:29;26.50;38.90
80958;DHT22;70419;42.700;23.316;2023-08-30T06:32:56;26.60;38.40
80958;DHT22;70419;42.700;23.316;2023-08-30T06:35:23;26.80;38.20
80958;DHT22;70419;42.700;23.316;2023-08-30T06:37:49;27.00;37.80
80958;DHT22;70419;42.700;23.316;2023-08-30T06:40:14;27.40;37.20
80958;DHT22;70419;42.700;23.316;2023-08-30T06:42:40;27.70;36.50
80958;DHT22;70419;42.700;23.316;2023-08-30T06:45:06;28.10;35.70
80958;DHT22;70419;42.700;23.316;2023-08-30T06:47:32;28.70;34.50
80958;DHT22;70419;42.700;23.316;2023-08-30T06:49:58;29.50;32.70
80958;DHT22;70419;42.700;23.316;2023-08-30T06:52:25;30.80;30.60
80958;DHT22;70419;42.700;23.316;2023-08-30T06:54:52;31.90;28.90
80958;DHT22;70419;42.700;23.316;2023-08-30T06:57:18;33.00;27.90
80958;DHT22;70419;42.700;23.316;2023-08-30T06:59:44;33.80;26.70
80958;DHT22;70419;42.700;23.316;2023-08-30T07:02:11;34.60;25.60
80958;DHT22;70419;42.700;23.316;2023-08-30T07:04:37;35.00;25.40
80958;DHT22;70419;42.700;23.316;2023-08-30T07:07:03;35.70;25.00
80958;DHT22;70419;42.700;23.316;2023-08-30T07:09:30;36.50;24.10
80958;DHT22;70419;42.700;23.316;2023-08-30T07:11:57;36.70;23.70
80958;DHT22;70419;42.700;23.316;2023-08-30T07:14:23;36.50;24.10
80958;DHT22;70419;42.700;23.316;2023-08-30T07:16:49;37.10;23.70
80958;DHT22;70419;42.700;23.316;2023-08-30T07:19:18;37.80;23.10
80958;DHT22;70419;42.700;23.316;2023-08-30T07:21:45;38.40;22.30
80958;DHT22;70419;42.700;23.316;2023-08-30T07:24:11;39.10;21.60
80958;DHT22;70419;42.700;23.316;2023-08-30T07:26:36;39.50;21.00
80958;DHT22;70419;42.700;23.316;2023-08-30T07:29:03;39.90;20.10
80958;DHT22;70419;42.700;23.316;2023-08-30T07:31:32;40.00;20.20
80958;DHT22;70419;42.700;23.316;2023-08-30T07:33:58;40.00;20.10
80958;DHT22;70419;42.700;23.316;2023-08-30T07:36:28;40.80;19.70
80958;DHT22;70419;42.700;23.316;2023-08-30T07:38:54;41.20;19.40
80958;DHT22;70419;42.700;23.316;2023-08-30T07:41:21;41.50;18.90
80958;DHT22;70419;42.700;23.316;2023-08-30T07:43:49;42.50;18.30
80958;DHT22;70419;42.700;23.316;2023-08-30T07:46:16;43.50;17.60
80958;DHT22;70419;42.700;23.316;2023-08-30T07:48:42;44.40;16.80
80958;DHT22;70419;42.700;23.316;2023-08-30T07:51:08;44.90;16.50
80958;DHT22;70419;42.700;23.316;2023-08-30T07:53:34;44.40;16.90
80958;DHT22;70419;42.700;23.316;2023-08-30T07:56:01;44.90;17.20
80958;DHT22;70419;42.700;23.316;2023-08-30T07:58:26;45.30;16.00
80958;DHT22;70419;42.700;23.316;2023-08-30T08:00:53;45.70;15.80
80958;DHT22;70419;42.700;23.316;2023-08-30T08:03:21;46.30;14.60
80958;DHT22;70419;42.700;23.316;2023-08-30T08:05:47;46.70;14.80
80958;DHT22;70419;42.700;23.316;2023-08-30T08:08:13;46.90;14.00
80958;DHT22;70419;42.700;23.316;2023-08-30T08:10:43;47.10;14.60
80958;DHT22;70419;42.700;23.316;2023-08-30T08:13:08;46.90;14.50
80958;DHT22;70419;42.700;23.316;2023-08-30T08:15:34;46.30;14.80
80958;DHT22;70419;42.700;23.316;2023-08-30T08:18:01;46.30;15.00
80958;DHT22;70419;42.700;23.316;2023-08-30T08:20:28;46.60;14.70
80958;DHT22;70419;42.700;23.316;2023-08-30T08:22:54;47.30;14.30
80958;DHT22;70419;42.700;23.316;2023-08-30T08:25:20;47.70;14.00
80958;DHT22;70419;42.700;23.316;2023-08-30T08:27:48;48.40;13.70
80958;DHT22;70419;42.700;23.316;2023-08-30T08:30:14;48.90;13.20
80958;DHT22;70419;42.700;23.316;2023-08-30T08:32:40;49.10;12.80
80958;DHT22;70419;42.700;23.316;2023-08-30T08:35:06;49.50;13.20
80958;DHT22;70419;42.700;23.316;2023-08-30T08:37:32;49.60;13.00
80958;DHT22;70419;42.700;23.316;2023-08-30T08:39:58;50.00;12.70
80958;DHT22;70419;42.700;23.316;2023-08-30T08:42:25;50.60;12.30
80958;DHT22;70419;42.700;23.316;2023-08-30T08:44:54;50.90;12.30
80958;DHT22;70419;42.700;23.316;2023-08-30T08:47:20;50.10;12.40
80958;DHT22;70419;42.700;23.316;2023-08-30T08:49:50;49.70;12.50
80958;DHT22;70419;42.700;23.316;2023-08-30T08:52:16;50.00;12.40
80958;DHT22;70419;42.700;23.316;2023-08-30T08:54:43;50.40;12.10
80958;DHT22;70419;42.700;23.316;2023-08-30T08:57:09;50.80;12.10
80958;DHT22;70419;42.700;23.316;2023-08-30T08:59:35;50.60;12.00
80958;DHT22;70419;42.700;23.316;2023-08-30T09:02:02;50.80;12.30
80958;DHT22;70419;42.700;23.316;2023-08-30T09:04:30;51.20;11.80
80958;DHT22;70419;42.700;23.316;2023-08-30T09:06:58;51.80;11.60
80958;DHT22;70419;42.700;23.316;2023-08-30T09:09:25;52.20;11.30
80958;DHT22;70419;42.700;23.316;2023-08-30T09:11:51;52.40;11.40
80958;DHT22;70419;42.700;23.316;2023-08-30T09:14:18;52.90;11.00
80958;DHT22;70419;42.700;23.316;2023-08-30T09:16:55;53.80;10.60
80958;DHT22;70419;42.700;23.316;2023-08-30T09:19:21;54.20;10.30
80958;DHT22;70419;42.700;23.316;2023-08-30T09:21:59;54.80;10.00
80958;DHT22;70419;42.700;23.316;2023-08-30T09:24:36;55.80;9.70
80958;DHT22;70419;42.700;23.316;2023-08-30T09:27:03;56.30;9.40
80958;DHT22;70419;42.700;23.316;2023-08-30T09:29:29;56.70;9.20
80958;DHT22;70419;42.700;23.316;2023-08-30T09:31:55;57.00;8.90
80958;DHT22;70419;42.700;23.316;2023-08-30T09:34:24;57.60;8.80
80958;DHT22;70419;42.700;23.316;2023-08-30T09:36:54;58.00;8.50
80958;DHT22;70419;42.700;23.316;2023-08-30T09:39:20;58.30;8.40
80958;DHT22;70419;42.700;23.316;2023-08-30T09:41:49;58.70;8.10
80958;DHT22;70419;42.700;23.316;2023-08-30T09:44:20;59.00;8.20
80958;DHT22;70419;42.700;23.316;2023-08-30T09:49:13;57.50;8.80
80958;DHT22;70419;42.700;23.316;2023-08-30T09:51:40;56.00;9.40
80958;DHT22;70419;42.700;23.316;2023-08-30T09:54:23;55.40;9.60
80958;DHT22;70419;42.700;23.316;2023-08-30T09:56:50;55.70;9.50
80958;DHT22;70419;42.700;23.316;2023-08-30T09:59:22;56.30;9.20
80958;DHT22;70419;42.700;23.316;2023-08-30T10:01:49;56.90;9.00
80958;DHT22;70419;42.700;23.316;2023-08-30T10:04:15;57.10;8.70
80958;DHT22;70419;42.700;23.316;2023-08-30T10:06:43;56.70;8.90
80958;DHT22;70419;42.700;23.316;2023-08-30T10:09:10;54.90;9.60
80958;DHT22;70419;42.700;23.316;2023-08-30T10:11:37;50.90;11.30
80958;DHT22;70419;42.700;23.316;2023-08-30T10:14:04;48.80;12.50
80958;DHT22;70419;42.700;23.316;2023-08-30T10:16:45;47.60;12.90
80958;DHT22;70419;42.700;23.316;2023-08-30T10:21:39;49.80;12.20
80958;DHT22;70419;42.700;23.316;2023-08-30T10:24:09;51.40;11.30
80958;DHT22;70419;42.700;23.316;2023-08-30T10:26:37;52.50;10.90
80958;DHT22;70419;42.700;23.316;2023-08-30T10:29:05;52.70;10.70
80958;DHT22;70419;42.700;23.316;2023-08-30T10:31:32;52.80;10.70
80958;DHT22;70419;42.700;23.316;2023-08-30T10:33:59;54.00;10.20
80958;DHT22;70419;42.700;23.316;2023-08-30T10:36:28;54.70;9.50
80958;DHT22;70419;42.700;23.316;2023-08-30T10:38:54;52.80;10.50
80958;DHT22;70419;42.700;23.316;2023-08-30T10:41:26;50.20;11.80
80958;DHT22;70419;42.700;23.316;2023-08-30T10:43:54;48.20;12.80
80958;DHT22;70419;42.700;23.316;2023-08-30T10:46:35;47.00;13.70
80958;DHT22;70419;42.700;23.316;2023-08-30T10:49:14;47.00;13.60
80958;DHT22;70419;42.700;23.316;2023-08-30T10:51:42;46.50;14.00
80958;DHT22;70419;42.700;23.316;2023-08-30T10:54:16;45.90;14.20
80958;DHT22;70419;42.700;23.316;2023-08-30T10:56:54;45.20;14.60
80958;DHT22;70419;42.700;23.316;2023-08-30T10:59:22;45.50;14.30
80958;DHT22;70419;42.700;23.316;2023-08-30T11:01:50;44.90;14.70
80958;DHT22;70419;42.700;23.316;2023-08-30T11:04:18;44.80;14.80
80958;DHT22;70419;42.700;23.316;2023-08-30T11:06:45;47.10;13.70
80958;DHT22;70419;42.700;23.316;2023-08-30T11:09:17;49.70;12.40
80958;DHT22;70419;42.700;23.316;2023-08-30T11:11:46;51.10;11.40
80958;DHT22;70419;42.700;23.316;2023-08-30T11:14:13;53.10;10.50
80958;DHT22;70419;42.700;23.316;2023-08-30T11:16:39;54.90;9.40
80958;DHT22;70419;42.700;23.316;2023-08-30T11:19:06;55.90;8.70
80958;DHT22;70419;42.700;23.316;2023-08-30T11:21:34;55.70;8.40
80958;DHT22;70419;42.700;23.316;2023-08-30T11:24:00;53.90;9.20
80958;DHT22;70419;42.700;23.316;2023-08-30T11:26:26;51.40;10.10
80958;DHT22;70419;42.700;23.316;2023-08-30T11:28:52;49.40;10.70
80958;DHT22;70419;42.700;23.316;2023-08-30T11:31:22;50.00;9.90
80958;DHT22;70419;42.700;23.316;2023-08-30T11:33:58;51.60;9.40
80958;DHT22;70419;42.700;23.316;2023-08-30T11:36:28;53.00;8.90
80958;DHT22;70419;42.700;23.316;2023-08-30T11:38:55;54.00;8.30
80958;DHT22;70419;42.700;23.316;2023-08-30T11:41:21;54.30;8.10
80958;DHT22;70419;42.700;23.316;2023-08-30T11:43:48;52.10;8.90
80958;DHT22;70419;42.700;23.316;2023-08-30T11:46:14;48.80;10.30
80958;DHT22;70419;42.700;23.316;2023-08-30T11:48:43;46.00;11.60
80958;DHT22;70419;42.700;23.316;2023-08-30T11:51:09;45.50;12.10
80958;DHT22;70419;42.700;23.316;2023-08-30T11:53:37;46.80;11.40
80958;DHT22;70419;42.700;23.316;2023-08-30T11:56:04;48.40;10.60
80958;DHT22;70419;42.700;23.316;2023-08-30T11:58:34;46.90;10.90
80958;DHT22;70419;42.700;23.316;2023-08-30T12:01:01;46.10;11.50
80958;DHT22;70419;42.700;23.316;2023-08-30T12:03:29;46.30;11.20
80958;DHT22;70419;42.700;23.316;2023-08-30T12:05:55;45.40;12.10
80958;DHT22;70419;42.700;23.316;2023-08-30T12:08:26;46.40;11.40
80958;DHT22;70419;42.700;23.316;2023-08-30T12:10:53;47.80;10.60
80958;DHT22;70419;42.700;23.316;2023-08-30T12:13:26;46.80;11.20
80958;DHT22;70419;42.700;23.316;2023-08-30T12:15:56;45.80;11.50
80958;DHT22;70419;42.700;23.316;2023-08-30T12:18:27;44.20;12.30
80958;DHT22;70419;42.700;23.316;2023-08-30T12:21:03;45.20;12.00
80958;DHT22;70419;42.700;23.316;2023-08-30T12:23:31;47.40;10.90
80958;DHT22;70419;42.700;23.316;2023-08-30T12:26:08;48.10;10.20
80958;DHT22;70419;42.700;23.316;2023-08-30T12:28:41;47.60;10.30
80958;DHT22;70419;42.700;23.316;2023-08-30T12:31:09;47.40;10.70
80958;DHT22;70419;42.700;23.316;2023-08-30T12:33:37;47.70;10.20
80958;DHT22;70419;42.700;23.316;2023-08-30T12:36:07;49.20;9.80
80958;DHT22;70419;42.700;23.316;2023-08-30T12:38:35;49.10;9.50
80958;DHT22;70419;42.700;23.316;2023-08-30T12:41:01;47.50;10.00
80958;DHT22;70419;42.700;23.316;2023-08-30T12:43:29;45.70;11.00
80958;DHT22;70419;42.700;23.316;2023-08-30T12:45:54;44.50;11.60
80958;DHT22;70419;42.700;23.316;2023-08-30T12:48:21;44.30;11.40
80958;DHT22;70419;42.700;23.316;2023-08-30T12:50:47;44.30;11.30
80958;DHT22;70419;42.700;23.316;2023-08-30T12:53:14;45.50;10.70
80958;DHT22;70419;42.700;23.316;2023-08-30T12:55:42;46.80;10.80
80958;DHT22;70419;42.700;23.316;2023-08-30T12:58:08;46.90;9.90
80958;DHT22;70419;42.700;23.316;2023-08-30T13:00:41;44.90;10.80
80958;DHT22;70419;42.700;23.316;2023-08-30T13:03:07;44.60;11.10
80958;DHT22;70419;42.700;23.316;2023-08-30T13:05:33;46.30;10.50
80958;DHT22;70419;42.700;23.316;2023-08-30T13:08:03;47.10;10.10
80958;DHT22;70419;42.700;23.316;2023-08-30T13:10:30;46.90;10.10
80958;DHT22;70419;42.700;23.316;2023-08-30T13:12:59;47.00;10.00
80958;DHT22;70419;42.700;23.316;2023-08-30T13:15:25;45.20;10.80
80958;DHT22;70419;42.700;23.316;2023-08-30T13:17:51;45.10;10.80
80958;DHT22;70419;42.700;23.316;2023-08-30T13:20:19;44.20;11.20
80958;DHT22;70419;42.700;23.316;2023-08-30T13:22:45;43.80;11.20
80958;DHT22;70419;42.700;23.316;2023-08-30T13:25:11;43.20;11.30
80958;DHT22;70419;42.700;23.316;2023-08-30T13:27:37;43.30;11.30
80958;DHT22;70419;42.700;23.316;2023-08-30T13:30:03;43.10;10.90
80958;DHT22;70419;42.700;23.316;2023-08-30T13:32:32;43.70;10.80
80958;DHT22;70419;42.700;23.316;2023-08-30T13:34:58;43.80;11.20
80958;DHT22;70419;42.700;23.316;2023-08-30T13:37:24;43.50;11.50
80958;DHT22;70419;42.700;23.316;2023-08-30T13:39:52;43.50;11.20
80958;DHT22;70419;42.700;23.316;2023-08-30T13:42:18;42.80;11.40
80958;DHT22;70419;42.700;23.316;2023-08-30T13:44:44;43.30;11.20
80958;DHT22;70419;42.700;23.316;2023-08-30T13:47:11;43.60;11.20
80958;DHT22;70419;42.700;23.316;2023-08-30T13:49:37;42.80;11.50
80958;DHT22;70419;42.700;23.316;2023-08-30T13:52:03;42.60;11.70
80958;DHT22;70419;42.700;23.316;2023-08-30T13:54:31;41.90;12.00
80958;DHT22;70419;42.700;23.316;2023-08-30T13:56:58;41.30;12.50
80958;DHT22;70419;42.700;23.316;2023-08-30T13:59:24;41.00;12.50
80958;DHT22;70419;42.700;23.316;2023-08-30T14:01:49;41.00;12.30
80958;DHT22;70419;42.700;23.316;2023-08-30T14:04:15;41.10;12.10
80958;DHT22;70419;42.700;23.316;2023-08-30T14:06:41;41.40;12.40
80958;DHT22;70419;42.700;23.316;2023-08-30T14:09:07;41.20;12.60
80958;DHT22;70419;42.700;23.316;2023-08-30T14:11:34;41.60;12.60
80958;DHT22;70419;42.700;23.316;2023-08-30T14:14:02;42.00;12.30
80958;DHT22;70419;42.700;23.316;2023-08-30T14:16:27;41.20;12.50
80958;DHT22;70419;42.700;23.316;2023-08-30T14:18:53;40.50;12.90
80958;DHT22;70419;42.700;23.316;2023-08-30T14:21:20;40.70;13.00
80958;DHT22;70419;42.700;23.316;2023-08-30T14:23:46;41.60;12.80
80958;DHT22;70419;42.700;23.316;2023-08-30T14:26:12;42.70;12.30
80958;DHT22;70419;42.700;23.316;2023-08-30T14:28:39;43.30;11.90
80958;DHT22;70419;42.700;23.316;2023-08-30T14:31:14;43.70;11.80
80958;DHT22;70419;42.700;23.316;2023-08-30T14:33:43;43.70;11.60
80958;DHT22;70419;42.700;23.316;2023-08-30T14:36:12;42.90;11.90
80958;DHT22;70419;42.700;23.316;2023-08-30T14:38:38;42.40;12.30
80958;DHT22;70419;42.700;23.316;2023-08-30T14:41:06;41.60;12.60
80958;DHT22;70419;42.700;23.316;2023-08-30T14:43:32;40.70;12.70
80958;DHT22;70419;42.700;23.316;2023-08-30T14:46:02;39.80;13.30
80958;DHT22;70419;42.700;23.316;2023-08-30T14:48:28;38.60;14.30
80958;DHT22;70419;42.700;23.316;2023-08-30T14:50:54;37.90;17.20
80958;DHT22;70419;42.700;23.316;2023-08-30T14:53:20;37.60;18.10
80958;DHT22;70419;42.700;23.316;2023-08-30T14:55:46;38.10;18.30
80958;DHT22;70419;42.700;23.316;2023-08-30T14:58:15;39.00;17.70
80958;DHT22;70419;42.700;23.316;2023-08-30T15:00:40;40.00;17.10
80958;DHT22;70419;42.700;23.316;2023-08-30T15:03:06;41.20;16.30
80958;DHT22;70419;42.700;23.316;2023-08-30T15:05:32;41.40;16.00
80958;DHT22;70419;42.700;23.316;2023-08-30T15:07:58;41.50;16.00
80958;DHT22;70419;42.700;23.316;2023-08-30T15:10:24;41.70;15.90
80958;DHT22;70419;42.700;23.316;2023-08-30T15:12:49;41.30;15.80
80958;DHT22;70419;42.700;23.316;2023-08-30T15:15:16;41.30;15.50
80958;DHT22;70419;42.700;23.316;2023-08-30T15:17:41;40.90;16.20
80958;DHT22;70419;42.700;23.316;2023-08-30T15:20:10;40.60;17.00
80958;DHT22;70419;42.700;23.316;2023-08-30T15:22:36;40.40;16.70
80958;DHT22;70419;42.700;23.316;2023-08-30T15:25:03;39.20;18.10
80958;DHT22;70419;42.700;23.316;2023-08-30T15:27:34;37.90;18.70